Kane, PA (16735)

2:07 AM EST on February 09, 2016 (GMT -0500)
Division Street Ext. | | Change Station
CLOSE
Current Station
Personal Weather Station
Location: Mt Jewett, PA
Elevation: 2245 ft
Nearby Weather Stations

Elev 2245 ft 41.70 °N, 78.64 °W | Updated 3 minutes ago

Overcast
Overcast
29.5 °F
Feels Like 30 °F
N
0.7
Wind Variable Wind from WSW
Gusts 1.8 mph

Today
High -- | Low -- °F
--% Chance of Precip.
Yesterday
High -- | Low -- °F
Precip. -- in
Pressure 29.53 in
Visibility 8.0 miles
Clouds Overcast 900 ft
Windchill 30 °F
Dew Point 26 °F
Humidity 86%
Rainfall 0.00 in
Snow Depth Not available.
7:18 AM 5:40 PM
New Moon, 1% visible
METAR KBFD 090653Z AUTO 18004KT 8SM OVC009 M01/M03 A2949 RMK AO2 SLP999 T10111033
Pressure 29.53 in
Visibility 8.0 miles
Clouds Overcast 900 ft
Windchill 30 °F
Dew Point 26 °F
Humidity 86%
Rainfall 0.00 in
Snow Depth Not available.
7:18 AM 5:40 PM
New Moon, 1% visible
METAR KBFD 090653Z AUTO 18004KT 8SM OVC009 M01/M03 A2949 RMK AO2 SLP999 T10111033

10-Day Weather Forecast

Almanac

Astronomy

Feb. 09, 2016 Rise Set
Actual Time
Civil Twilight
Nautical Twilight
Astronomical Twilight
Moon
Length of Visible Light
Length of Day
Tomorrow will be .
, % of the Moon is Illuminated

Today's Extremes

State Highs State Lows

Community

WunderPhotos

Upload Photos

1,891,571 photos uploaded!

WunderBlog® & News

Nearby

Air Quality

  Air Quality AQ Index Pollutant
Not available.

Snow Depth

Station Depth Elevation

Earthquake Activity

City Distance Mag. Time & Date
Minimum magnitude displayed is 2.5.

Coastal Water Temperatures

Place Temperature

Stations

Nearby Weather Stations

Station Location Temp. Windchill Dew Point Humidity Wind Precip. Elev Updated Type
                   

Watches & Warnings

There are currently no watches in effect.